sensor_id;sensor_type;location;lat;lon;timestamp;P1;durP1;ratioP1;P2;durP2;ratioP2
24619;SDS011;12763;55.802;37.404;2024-02-28T00:01:51;11.13;;;4.22;;
24619;SDS011;12763;55.802;37.404;2024-02-28T00:04:18;12.10;;;5.38;;
24619;SDS011;12763;55.802;37.404;2024-02-28T00:06:44;13.90;;;4.95;;
24619;SDS011;12763;55.802;37.404;2024-02-28T00:09:11;11.95;;;4.35;;
24619;SDS011;12763;55.802;37.404;2024-02-28T00:11:42;20.00;;;4.28;;
24619;SDS011;12763;55.802;37.404;2024-02-28T00:14:10;13.82;;;4.63;;
24619;SDS011;12763;55.802;37.404;2024-02-28T00:16:36;12.68;;;4.80;;
24619;SDS011;12763;55.802;37.404;2024-02-28T00:19:05;9.23;;;4.20;;
24619;SDS011;12763;55.802;37.404;2024-02-28T00:21:31;8.05;;;4.07;;
24619;SDS011;12763;55.802;37.404;2024-02-28T00:23:57;10.10;;;4.25;;
24619;SDS011;12763;55.802;37.404;2024-02-28T00:26:22;11.38;;;4.57;;
24619;SDS011;12763;55.802;37.404;2024-02-28T00:28:48;12.95;;;5.60;;
24619;SDS011;12763;55.802;37.404;2024-02-28T00:31:14;15.55;;;5.22;;
24619;SDS011;12763;55.802;37.404;2024-02-28T00:33:40;9.73;;;4.32;;
24619;SDS011;12763;55.802;37.404;2024-02-28T00:36:06;16.27;;;5.30;;
24619;SDS011;12763;55.802;37.404;2024-02-28T00:38:32;12.95;;;4.15;;
24619;SDS011;12763;55.802;37.404;2024-02-28T00:40:57;15.25;;;5.05;;
24619;SDS011;12763;55.802;37.404;2024-02-28T00:43:23;14.90;;;4.68;;
24619;SDS011;12763;55.802;37.404;2024-02-28T00:45:49;11.35;;;5.05;;
24619;SDS011;12763;55.802;37.404;2024-02-28T00:48:15;9.43;;;4.22;;
24619;SDS011;12763;55.802;37.404;2024-02-28T00:50:41;14.52;;;5.07;;
24619;SDS011;12763;55.802;37.404;2024-02-28T00:53:06;12.10;;;4.68;;
24619;SDS011;12763;55.802;37.404;2024-02-28T00:55:32;19.45;;;5.40;;
24619;SDS011;12763;55.802;37.404;2024-02-28T00:57:58;11.10;;;4.38;;
24619;SDS011;12763;55.802;37.404;2024-02-28T01:00:24;8.60;;;3.92;;
24619;SDS011;12763;55.802;37.404;2024-02-28T01:02:50;18.00;;;5.47;;
24619;SDS011;12763;55.802;37.404;2024-02-28T01:05:16;16.50;;;5.15;;
24619;SDS011;12763;55.802;37.404;2024-02-28T01:07:41;13.00;;;4.82;;
24619;SDS011;12763;55.802;37.404;2024-02-28T01:10:07;14.80;;;4.75;;
24619;SDS011;12763;55.802;37.404;2024-02-28T01:12:33;15.40;;;4.47;;
24619;SDS011;12763;55.802;37.404;2024-02-28T01:14:59;10.15;;;4.43;;
24619;SDS011;12763;55.802;37.404;2024-02-28T01:17:25;12.95;;;4.38;;
24619;SDS011;12763;55.802;37.404;2024-02-28T01:19:51;9.63;;;4.20;;
24619;SDS011;12763;55.802;37.404;2024-02-28T01:22:17;11.18;;;4.70;;
24619;SDS011;12763;55.802;37.404;2024-02-28T01:24:43;14.77;;;4.47;;
24619;SDS011;12763;55.802;37.404;2024-02-28T01:27:09;11.13;;;5.13;;
24619;SDS011;12763;55.802;37.404;2024-02-28T01:29:35;16.73;;;5.45;;
24619;SDS011;12763;55.802;37.404;2024-02-28T01:32:01;17.95;;;4.72;;
24619;SDS011;12763;55.802;37.404;2024-02-28T01:34:27;12.68;;;4.40;;
24619;SDS011;12763;55.802;37.404;2024-02-28T01:36:53;14.88;;;5.40;;
24619;SDS011;12763;55.802;37.404;2024-02-28T01:39:18;10.82;;;4.25;;
24619;SDS011;12763;55.802;37.404;2024-02-28T01:41:54;22.50;;;5.07;;
24619;SDS011;12763;55.802;37.404;2024-02-28T01:44:20;13.95;;;5.00;;
24619;SDS011;12763;55.802;37.404;2024-02-28T01:46:46;11.40;;;4.80;;
24619;SDS011;12763;55.802;37.404;2024-02-28T01:49:12;17.13;;;5.13;;
24619;SDS011;12763;55.802;37.404;2024-02-28T01:51:39;13.80;;;4.78;;
24619;SDS011;12763;55.802;37.404;2024-02-28T01:54:06;10.43;;;4.55;;
24619;SDS011;12763;55.802;37.404;2024-02-28T01:56:32;16.38;;;5.97;;
24619;SDS011;12763;55.802;37.404;2024-02-28T01:59:00;11.93;;;4.82;;
24619;SDS011;12763;55.802;37.404;2024-02-28T02:01:27;11.88;;;4.30;;
24619;SDS011;12763;55.802;37.404;2024-02-28T02:03:53;13.35;;;4.75;;
24619;SDS011;12763;55.802;37.404;2024-02-28T02:06:19;13.30;;;5.22;;
24619;SDS011;12763;55.802;37.404;2024-02-28T02:08:46;14.98;;;5.15;;
24619;SDS011;12763;55.802;37.404;2024-02-28T02:11:17;13.15;;;5.38;;
24619;SDS011;12763;55.802;37.404;2024-02-28T02:13:49;14.40;;;5.40;;
24619;SDS011;12763;55.802;37.404;2024-02-28T02:16:19;11.68;;;4.70;;
24619;SDS011;12763;55.802;37.404;2024-02-28T02:18:52;17.52;;;5.20;;
24619;SDS011;12763;55.802;37.404;2024-02-28T02:21:19;14.90;;;5.00;;
24619;SDS011;12763;55.802;37.404;2024-02-28T02:23:48;17.20;;;6.25;;
24619;SDS011;12763;55.802;37.404;2024-02-28T02:26:14;19.15;;;5.43;;
24619;SDS011;12763;55.802;37.404;2024-02-28T02:28:40;18.67;;;5.25;;
24619;SDS011;12763;55.802;37.404;2024-02-28T02:31:05;13.52;;;5.43;;
24619;SDS011;12763;55.802;37.404;2024-02-28T02:33:31;13.50;;;4.38;;
24619;SDS011;12763;55.802;37.404;2024-02-28T02:35:58;12.63;;;5.55;;
24619;SDS011;12763;55.802;37.404;2024-02-28T02:38:23;16.88;;;4.32;;
24619;SDS011;12763;55.802;37.404;2024-02-28T02:40:52;15.85;;;5.60;;
24619;SDS011;12763;55.802;37.404;2024-02-28T02:43:18;12.40;;;5.07;;
24619;SDS011;12763;55.802;37.404;2024-02-28T02:45:44;15.52;;;5.55;;
24619;SDS011;12763;55.802;37.404;2024-02-28T02:48:10;14.63;;;5.30;;
24619;SDS011;12763;55.802;37.404;2024-02-28T02:50:36;13.25;;;5.30;;
24619;SDS011;12763;55.802;37.404;2024-02-28T02:53:03;13.05;;;5.80;;
24619;SDS011;12763;55.802;37.404;2024-02-28T02:55:29;16.63;;;5.72;;
24619;SDS011;12763;55.802;37.404;2024-02-28T02:57:55;14.93;;;5.15;;
24619;SDS011;12763;55.802;37.404;2024-02-28T03:00:21;17.35;;;6.30;;
24619;SDS011;12763;55.802;37.404;2024-02-28T03:02:47;17.95;;;6.03;;
24619;SDS011;12763;55.802;37.404;2024-02-28T03:05:13;10.98;;;4.43;;
24619;SDS011;12763;55.802;37.404;2024-02-28T03:07:39;19.45;;;5.90;;
24619;SDS011;12763;55.802;37.404;2024-02-28T03:10:05;12.65;;;4.85;;
24619;SDS011;12763;55.802;37.404;2024-02-28T03:12:32;15.80;;;5.35;;
24619;SDS011;12763;55.802;37.404;2024-02-28T03:14:58;19.45;;;5.78;;
24619;SDS011;12763;55.802;37.404;2024-02-28T03:17:24;14.63;;;4.90;;
24619;SDS011;12763;55.802;37.404;2024-02-28T03:19:50;13.07;;;5.47;;
24619;SDS011;12763;55.802;37.404;2024-02-28T03:22:16;13.55;;;5.68;;
24619;SDS011;12763;55.802;37.404;2024-02-28T03:24:42;12.07;;;5.53;;
24619;SDS011;12763;55.802;37.404;2024-02-28T03:27:08;23.55;;;6.60;;
24619;SDS011;12763;55.802;37.404;2024-02-28T03:29:33;17.65;;;5.82;;
24619;SDS011;12763;55.802;37.404;2024-02-28T03:31:59;18.02;;;6.57;;
24619;SDS011;12763;55.802;37.404;2024-02-28T03:34:25;13.65;;;5.72;;
24619;SDS011;12763;55.802;37.404;2024-02-28T03:36:51;16.85;;;5.82;;
24619;SDS011;12763;55.802;37.404;2024-02-28T03:39:17;14.10;;;4.78;;
24619;SDS011;12763;55.802;37.404;2024-02-28T03:41:43;15.93;;;5.47;;
24619;SDS011;12763;55.802;37.404;2024-02-28T03:44:09;15.75;;;6.20;;
24619;SDS011;12763;55.802;37.404;2024-02-28T03:46:36;19.08;;;6.00;;
24619;SDS011;12763;55.802;37.404;2024-02-28T03:49:02;17.05;;;5.35;;
24619;SDS011;12763;55.802;37.404;2024-02-28T03:51:28;19.70;;;6.80;;
24619;SDS011;12763;55.802;37.404;2024-02-28T03:53:55;11.90;;;5.45;;
24619;SDS011;12763;55.802;37.404;2024-02-28T03:56:25;19.05;;;6.30;;
24619;SDS011;12763;55.802;37.404;2024-02-28T03:58:52;14.18;;;5.40;;
24619;SDS011;12763;55.802;37.404;2024-02-28T04:01:18;15.30;;;4.72;;
24619;SDS011;12763;55.802;37.404;2024-02-28T04:03:44;22.42;;;6.03;;
24619;SDS011;12763;55.802;37.404;2024-02-28T04:06:10;12.93;;;5.40;;
24619;SDS011;12763;55.802;37.404;2024-02-28T04:08:36;16.10;;;5.00;;
24619;SDS011;12763;55.802;37.404;2024-02-28T04:11:02;15.23;;;5.85;;
24619;SDS011;12763;55.802;37.404;2024-02-28T04:13:28;16.38;;;5.95;;
24619;SDS011;12763;55.802;37.404;2024-02-28T04:15:54;15.48;;;5.47;;
24619;SDS011;12763;55.802;37.404;2024-02-28T04:18:21;17.15;;;5.32;;
24619;SDS011;12763;55.802;37.404;2024-02-28T04:20:47;13.18;;;5.57;;
24619;SDS011;12763;55.802;37.404;2024-02-28T04:23:12;15.75;;;6.05;;
24619;SDS011;12763;55.802;37.404;2024-02-28T04:25:38;18.83;;;5.75;;
24619;SDS011;12763;55.802;37.404;2024-02-28T04:28:06;17.00;;;5.47;;
24619;SDS011;12763;55.802;37.404;2024-02-28T04:30:34;14.35;;;5.47;;
24619;SDS011;12763;55.802;37.404;2024-02-28T04:33:00;16.33;;;6.00;;
24619;SDS011;12763;55.802;37.404;2024-02-28T04:35:26;16.02;;;5.90;;
24619;SDS011;12763;55.802;37.404;2024-02-28T04:37:52;17.67;;;6.20;;
24619;SDS011;12763;55.802;37.404;2024-02-28T04:40:18;16.15;;;5.82;;
24619;SDS011;12763;55.802;37.404;2024-02-28T04:42:44;19.15;;;5.80;;
24619;SDS011;12763;55.802;37.404;2024-02-28T04:45:10;16.73;;;6.25;;
24619;SDS011;12763;55.802;37.404;2024-02-28T04:47:36;19.80;;;6.05;;
24619;SDS011;12763;55.802;37.404;2024-02-28T04:50:03;17.58;;;6.13;;
24619;SDS011;12763;55.802;37.404;2024-02-28T04:52:30;13.07;;;5.25;;
24619;SDS011;12763;55.802;37.404;2024-02-28T04:54:57;12.52;;;5.43;;
24619;SDS011;12763;55.802;37.404;2024-02-28T04:57:22;14.50;;;5.38;;
24619;SDS011;12763;55.802;37.404;2024-02-28T04:59:48;13.38;;;5.72;;
24619;SDS011;12763;55.802;37.404;2024-02-28T05:02:14;16.92;;;5.82;;
24619;SDS011;12763;55.802;37.404;2024-02-28T05:04:42;14.27;;;5.93;;
24619;SDS011;12763;55.802;37.404;2024-02-28T05:07:08;17.77;;;6.00;;
24619;SDS011;12763;55.802;37.404;2024-02-28T05:09:34;19.88;;;4.85;;
24619;SDS011;12763;55.802;37.404;2024-02-28T05:12:01;16.50;;;6.53;;
24619;SDS011;12763;55.802;37.404;2024-02-28T05:14:27;15.68;;;6.05;;
24619;SDS011;12763;55.802;37.404;2024-02-28T05:16:53;18.10;;;5.63;;
24619;SDS011;12763;55.802;37.404;2024-02-28T05:19:19;13.48;;;4.97;;
24619;SDS011;12763;55.802;37.404;2024-02-28T05:21:45;20.27;;;5.85;;
24619;SDS011;12763;55.802;37.404;2024-02-28T05:24:11;15.32;;;6.80;;
24619;SDS011;12763;55.802;37.404;2024-02-28T05:26:37;19.13;;;6.07;;
24619;SDS011;12763;55.802;37.404;2024-02-28T05:29:04;12.10;;;4.85;;
24619;SDS011;12763;55.802;37.404;2024-02-28T05:31:30;14.63;;;5.38;;
24619;SDS011;12763;55.802;37.404;2024-02-28T05:33:57;17.60;;;6.05;;
24619;SDS011;12763;55.802;37.404;2024-02-28T05:36:25;18.58;;;6.05;;
24619;SDS011;12763;55.802;37.404;2024-02-28T05:38:52;17.70;;;6.18;;
24619;SDS011;12763;55.802;37.404;2024-02-28T05:41:20;15.75;;;5.53;;
24619;SDS011;12763;55.802;37.404;2024-02-28T05:43:46;17.15;;;5.28;;
24619;SDS011;12763;55.802;37.404;2024-02-28T05:46:13;17.73;;;6.07;;
24619;SDS011;12763;55.802;37.404;2024-02-28T05:48:40;18.23;;;6.65;;
24619;SDS011;12763;55.802;37.404;2024-02-28T05:51:07;15.07;;;5.65;;
24619;SDS011;12763;55.802;37.404;2024-02-28T05:53:32;23.40;;;6.50;;
24619;SDS011;12763;55.802;37.404;2024-02-28T05:56:02;15.98;;;6.07;;
24619;SDS011;12763;55.802;37.404;2024-02-28T05:58:28;15.85;;;5.63;;
24619;SDS011;12763;55.802;37.404;2024-02-28T06:00:54;17.85;;;5.82;;
24619;SDS011;12763;55.802;37.404;2024-02-28T06:03:20;15.68;;;5.85;;
24619;SDS011;12763;55.802;37.404;2024-02-28T06:05:46;24.13;;;6.68;;
24619;SDS011;12763;55.802;37.404;2024-02-28T06:08:12;17.30;;;6.55;;
24619;SDS011;12763;55.802;37.404;2024-02-28T06:10:38;16.20;;;6.15;;
24619;SDS011;12763;55.802;37.404;2024-02-28T06:13:04;15.10;;;5.80;;
24619;SDS011;12763;55.802;37.404;2024-02-28T06:15:30;18.90;;;5.95;;
24619;SDS011;12763;55.802;37.404;2024-02-28T06:17:57;15.40;;;5.57;;
24619;SDS011;12763;55.802;37.404;2024-02-28T06:20:26;17.48;;;7.05;;
24619;SDS011;12763;55.802;37.404;2024-02-28T06:22:52;16.80;;;6.45;;
24619;SDS011;12763;55.802;37.404;2024-02-28T06:25:18;12.88;;;5.93;;
24619;SDS011;12763;55.802;37.404;2024-02-28T06:27:45;13.82;;;5.75;;
24619;SDS011;12763;55.802;37.404;2024-02-28T06:30:12;15.77;;;5.97;;
24619;SDS011;12763;55.802;37.404;2024-02-28T06:32:38;13.95;;;5.57;;
24619;SDS011;12763;55.802;37.404;2024-02-28T06:35:04;15.93;;;5.88;;
24619;SDS011;12763;55.802;37.404;2024-02-28T06:37:31;11.02;;;5.50;;
24619;SDS011;12763;55.802;37.404;2024-02-28T06:39:57;23.55;;;6.75;;
24619;SDS011;12763;55.802;37.404;2024-02-28T06:42:23;17.02;;;6.10;;
24619;SDS011;12763;55.802;37.404;2024-02-28T06:44:49;16.02;;;6.55;;
24619;SDS011;12763;55.802;37.404;2024-02-28T06:47:15;15.70;;;6.13;;
24619;SDS011;12763;55.802;37.404;2024-02-28T06:49:40;16.63;;;6.53;;
24619;SDS011;12763;55.802;37.404;2024-02-28T06:52:06;17.10;;;6.15;;
24619;SDS011;12763;55.802;37.404;2024-02-28T06:54:32;17.27;;;7.40;;
24619;SDS011;12763;55.802;37.404;2024-02-28T06:56:58;14.80;;;6.32;;
24619;SDS011;12763;55.802;37.404;2024-02-28T06:59:24;19.05;;;5.75;;
24619;SDS011;12763;55.802;37.404;2024-02-28T07:01:50;12.32;;;5.55;;
24619;SDS011;12763;55.802;37.404;2024-02-28T07:04:15;16.95;;;6.15;;
24619;SDS011;12763;55.802;37.404;2024-02-28T07:06:42;15.57;;;5.22;;
24619;SDS011;12763;55.802;37.404;2024-02-28T07:09:08;17.52;;;6.05;;
24619;SDS011;12763;55.802;37.404;2024-02-28T07:11:41;16.42;;;5.93;;
24619;SDS011;12763;55.802;37.404;2024-02-28T07:14:07;16.35;;;6.32;;
24619;SDS011;12763;55.802;37.404;2024-02-28T07:16:33;14.88;;;5.63;;
24619;SDS011;12763;55.802;37.404;2024-02-28T07:19:00;18.70;;;6.00;;
24619;SDS011;12763;55.802;37.404;2024-02-28T07:21:27;15.13;;;7.18;;
24619;SDS011;12763;55.802;37.404;2024-02-28T07:23:52;13.75;;;5.78;;
24619;SDS011;12763;55.802;37.404;2024-02-28T07:26:19;20.90;;;7.00;;
24619;SDS011;12763;55.802;37.404;2024-02-28T07:28:45;16.95;;;6.28;;
24619;SDS011;12763;55.802;37.404;2024-02-28T07:31:18;16.33;;;6.00;;
24619;SDS011;12763;55.802;37.404;2024-02-28T07:33:44;17.95;;;6.43;;
24619;SDS011;12763;55.802;37.404;2024-02-28T07:36:11;14.63;;;6.15;;
24619;SDS011;12763;55.802;37.404;2024-02-28T07:38:37;17.50;;;5.53;;
24619;SDS011;12763;55.802;37.404;2024-02-28T07:41:03;18.15;;;6.07;;
24619;SDS011;12763;55.802;37.404;2024-02-28T07:43:30;16.75;;;6.10;;
24619;SDS011;12763;55.802;37.404;2024-02-28T07:46:06;17.13;;;5.85;;
24619;SDS011;12763;55.802;37.404;2024-02-28T07:48:33;18.60;;;6.75;;
24619;SDS011;12763;55.802;37.404;2024-02-28T07:51:00;14.82;;;6.78;;
24619;SDS011;12763;55.802;37.404;2024-02-28T07:53:28;22.55;;;6.30;;
24619;SDS011;12763;55.802;37.404;2024-02-28T07:55:55;18.23;;;6.05;;
24619;SDS011;12763;55.802;37.404;2024-02-28T07:58:21;19.40;;;6.05;;
24619;SDS011;12763;55.802;37.404;2024-02-28T08:00:47;25.25;;;6.57;;
24619;SDS011;12763;55.802;37.404;2024-02-28T08:03:13;18.80;;;6.32;;
24619;SDS011;12763;55.802;37.404;2024-02-28T08:05:39;13.70;;;6.25;;
24619;SDS011;12763;55.802;37.404;2024-02-28T08:08:05;29.23;;;8.07;;
24619;SDS011;12763;55.802;37.404;2024-02-28T08:10:31;13.50;;;6.53;;
24619;SDS011;12763;55.802;37.404;2024-02-28T08:12:57;17.33;;;7.20;;
24619;SDS011;12763;55.802;37.404;2024-02-28T08:15:23;19.88;;;7.57;;
24619;SDS011;12763;55.802;37.404;2024-02-28T08:17:49;16.50;;;6.90;;
24619;SDS011;12763;55.802;37.404;2024-02-28T08:20:15;20.88;;;6.57;;
24619;SDS011;12763;55.802;37.404;2024-02-28T08:22:41;18.75;;;6.57;;
24619;SDS011;12763;55.802;37.404;2024-02-28T08:25:07;16.20;;;6.00;;
24619;SDS011;12763;55.802;37.404;2024-02-28T08:27:36;13.23;;;6.18;;
24619;SDS011;12763;55.802;37.404;2024-02-28T08:30:02;15.80;;;5.50;;
24619;SDS011;12763;55.802;37.404;2024-02-28T08:32:29;16.67;;;6.50;;
24619;SDS011;12763;55.802;37.404;2024-02-28T08:34:55;14.90;;;6.93;;
24619;SDS011;12763;55.802;37.404;2024-02-28T08:37:23;17.67;;;6.03;;
24619;SDS011;12763;55.802;37.404;2024-02-28T08:39:50;21.05;;;6.13;;
24619;SDS011;12763;55.802;37.404;2024-02-28T08:42:16;15.52;;;6.15;;
24619;SDS011;12763;55.802;37.404;2024-02-28T08:44:42;12.23;;;5.63;;
24619;SDS011;12763;55.802;37.404;2024-02-28T08:47:08;17.92;;;6.15;;
24619;SDS011;12763;55.802;37.404;2024-02-28T08:49:34;16.30;;;6.75;;
24619;SDS011;12763;55.802;37.404;2024-02-28T08:52:01;11.10;;;5.40;;
24619;SDS011;12763;55.802;37.404;2024-02-28T08:54:27;19.48;;;6.35;;
24619;SDS011;12763;55.802;37.404;2024-02-28T08:56:53;14.82;;;6.35;;
24619;SDS011;12763;55.802;37.404;2024-02-28T08:59:19;12.82;;;5.82;;
24619;SDS011;12763;55.802;37.404;2024-02-28T09:01:46;21.15;;;6.43;;
24619;SDS011;12763;55.802;37.404;2024-02-28T09:04:11;15.82;;;6.00;;
24619;SDS011;12763;55.802;37.404;2024-02-28T09:06:37;18.48;;;6.53;;
24619;SDS011;12763;55.802;37.404;2024-02-28T09:09:03;17.70;;;6.32;;
24619;SDS011;12763;55.802;37.404;2024-02-28T09:11:29;15.70;;;6.05;;
24619;SDS011;12763;55.802;37.404;2024-02-28T09:13:55;30.05;;;9.57;;
24619;SDS011;12763;55.802;37.404;2024-02-28T09:16:21;15.40;;;6.47;;
24619;SDS011;12763;55.802;37.404;2024-02-28T09:18:47;14.68;;;6.13;;
24619;SDS011;12763;55.802;37.404;2024-02-28T09:21:12;20.90;;;5.97;;
24619;SDS011;12763;55.802;37.404;2024-02-28T09:23:40;14.10;;;6.05;;
24619;SDS011;12763;55.802;37.404;2024-02-28T09:26:06;14.68;;;5.70;;
24619;SDS011;12763;55.802;37.404;2024-02-28T09:28:33;16.98;;;6.47;;
24619;SDS011;12763;55.802;37.404;2024-02-28T09:30:59;13.98;;;7.25;;
24619;SDS011;12763;55.802;37.404;2024-02-28T09:33:25;16.15;;;5.25;;
24619;SDS011;12763;55.802;37.404;2024-02-28T09:35:51;14.30;;;4.28;;
24619;SDS011;12763;55.802;37.404;2024-02-28T09:38:16;18.25;;;5.35;;
24619;SDS011;12763;55.802;37.404;2024-02-28T09:40:46;13.05;;;5.38;;
24619;SDS011;12763;55.802;37.404;2024-02-28T09:43:19;13.82;;;5.90;;
24619;SDS011;12763;55.802;37.404;2024-02-28T09:45:49;11.57;;;6.25;;
24619;SDS011;12763;55.802;37.404;2024-02-28T09:48:16;15.02;;;5.40;;
24619;SDS011;12763;55.802;37.404;2024-02-28T09:50:43;18.80;;;5.72;;
24619;SDS011;12763;55.802;37.404;2024-02-28T09:53:10;14.32;;;6.03;;
24619;SDS011;12763;55.802;37.404;2024-02-28T09:55:36;20.70;;;6.60;;
24619;SDS011;12763;55.802;37.404;2024-02-28T09:58:02;12.63;;;5.38;;
24619;SDS011;12763;55.802;37.404;2024-02-28T10:00:30;18.60;;;6.68;;
24619;SDS011;12763;55.802;37.404;2024-02-28T10:02:56;17.20;;;5.38;;
24619;SDS011;12763;55.802;37.404;2024-02-28T10:05:23;14.95;;;6.15;;
24619;SDS011;12763;55.802;37.404;2024-02-28T10:07:52;12.60;;;5.80;;
24619;SDS011;12763;55.802;37.404;2024-02-28T10:10:18;10.63;;;5.30;;
24619;SDS011;12763;55.802;37.404;2024-02-28T10:12:44;16.05;;;6.05;;
24619;SDS011;12763;55.802;37.404;2024-02-28T10:15:10;23.15;;;5.82;;
24619;SDS011;12763;55.802;37.404;2024-02-28T10:17:37;15.55;;;6.13;;
24619;SDS011;12763;55.802;37.404;2024-02-28T10:20:03;21.13;;;6.70;;
24619;SDS011;12763;55.802;37.404;2024-02-28T10:22:35;14.48;;;6.28;;
24619;SDS011;12763;55.802;37.404;2024-02-28T10:25:01;20.23;;;6.55;;
24619;SDS011;12763;55.802;37.404;2024-02-28T10:27:32;17.23;;;6.85;;
24619;SDS011;12763;55.802;37.404;2024-02-28T10:30:00;16.05;;;5.47;;
24619;SDS011;12763;55.802;37.404;2024-02-28T10:32:31;15.52;;;5.78;;
24619;SDS011;12763;55.802;37.404;2024-02-28T10:35:01;15.90;;;6.50;;
24619;SDS011;12763;55.802;37.404;2024-02-28T10:37:30;16.63;;;5.88;;
24619;SDS011;12763;55.802;37.404;2024-02-28T10:39:58;18.33;;;6.03;;
24619;SDS011;12763;55.802;37.404;2024-02-28T10:42:27;17.35;;;6.28;;
24619;SDS011;12763;55.802;37.404;2024-02-28T10:44:57;13.40;;;6.03;;
24619;SDS011;12763;55.802;37.404;2024-02-28T10:47:24;13.20;;;6.07;;
24619;SDS011;12763;55.802;37.404;2024-02-28T10:49:52;31.65;;;7.78;;
24619;SDS011;12763;55.802;37.404;2024-02-28T10:52:19;12.48;;;5.57;;
24619;SDS011;12763;55.802;37.404;2024-02-28T10:54:49;18.58;;;5.75;;
24619;SDS011;12763;55.802;37.404;2024-02-28T10:57:21;14.30;;;6.30;;
24619;SDS011;12763;55.802;37.404;2024-02-28T10:59:49;14.90;;;6.13;;
24619;SDS011;12763;55.802;37.404;2024-02-28T11:02:16;15.45;;;7.05;;
24619;SDS011;12763;55.802;37.404;2024-02-28T11:04:42;14.77;;;5.60;;
24619;SDS011;12763;55.802;37.404;2024-02-28T11:07:09;14.68;;;6.13;;
24619;SDS011;12763;55.802;37.404;2024-02-28T11:09:34;14.85;;;5.45;;
24619;SDS011;12763;55.802;37.404;2024-02-28T11:12:00;16.63;;;6.00;;
24619;SDS011;12763;55.802;37.404;2024-02-28T11:14:30;17.85;;;6.25;;
24619;SDS011;12763;55.802;37.404;2024-02-28T11:17:05;15.38;;;6.07;;
24619;SDS011;12763;55.802;37.404;2024-02-28T11:19:32;20.00;;;7.55;;
24619;SDS011;12763;55.802;37.404;2024-02-28T11:21:59;15.00;;;6.55;;
24619;SDS011;12763;55.802;37.404;2024-02-28T11:24:30;10.60;;;5.75;;
24619;SDS011;12763;55.802;37.404;2024-02-28T11:26:57;12.63;;;6.00;;
24619;SDS011;12763;55.802;37.404;2024-02-28T11:29:26;17.33;;;7.35;;
24619;SDS011;12763;55.802;37.404;2024-02-28T11:31:56;18.85;;;6.78;;
24619;SDS011;12763;55.802;37.404;2024-02-28T11:34:22;14.55;;;6.90;;
24619;SDS011;12763;55.802;37.404;2024-02-28T11:36:48;17.83;;;7.13;;
24619;SDS011;12763;55.802;37.404;2024-02-28T11:39:15;13.55;;;7.00;;
24619;SDS011;12763;55.802;37.404;2024-02-28T11:41:42;19.88;;;7.18;;
24619;SDS011;12763;55.802;37.404;2024-02-28T11:44:13;15.63;;;6.25;;
24619;SDS011;12763;55.802;37.404;2024-02-28T11:46:44;17.83;;;7.10;;
24619;SDS011;12763;55.802;37.404;2024-02-28T11:49:11;13.75;;;6.55;;
24619;SDS011;12763;55.802;37.404;2024-02-28T11:51:41;19.92;;;7.13;;
24619;SDS011;12763;55.802;37.404;2024-02-28T11:54:08;17.30;;;6.75;;
24619;SDS011;12763;55.802;37.404;2024-02-28T11:56:38;18.90;;;6.70;;
24619;SDS011;12763;55.802;37.404;2024-02-28T11:59:04;20.85;;;7.55;;
24619;SDS011;12763;55.802;37.404;2024-02-28T12:04:06;10.98;;;5.65;;
24619;SDS011;12763;55.802;37.404;2024-02-28T12:06:33;20.10;;;7.93;;
24619;SDS011;12763;55.802;37.404;2024-02-28T12:09:00;12.75;;;6.70;;
24619;SDS011;12763;55.802;37.404;2024-02-28T12:11:26;19.33;;;6.95;;
24619;SDS011;12763;55.802;37.404;2024-02-28T12:13:55;15.05;;;6.15;;
24619;SDS011;12763;55.802;37.404;2024-02-28T12:16:22;14.95;;;6.45;;
24619;SDS011;12763;55.802;37.404;2024-02-28T12:18:51;15.32;;;6.90;;
24619;SDS011;12763;55.802;37.404;2024-02-28T12:21:18;18.15;;;6.38;;
24619;SDS011;12763;55.802;37.404;2024-02-28T12:23:46;14.65;;;7.15;;
24619;SDS011;12763;55.802;37.404;2024-02-28T12:26:13;14.75;;;6.78;;
24619;SDS011;12763;55.802;37.404;2024-02-28T12:28:39;17.98;;;7.20;;
24619;SDS011;12763;55.802;37.404;2024-02-28T12:31:05;17.10;;;6.90;;
24619;SDS011;12763;55.802;37.404;2024-02-28T12:33:34;15.20;;;6.55;;
24619;SDS011;12763;55.802;37.404;2024-02-28T12:36:00;18.27;;;7.20;;
24619;SDS011;12763;55.802;37.404;2024-02-28T12:38:28;15.45;;;6.53;;
24619;SDS011;12763;55.802;37.404;2024-02-28T12:40:55;14.70;;;6.03;;
24619;SDS011;12763;55.802;37.404;2024-02-28T12:43:20;28.10;;;7.65;;
24619;SDS011;12763;55.802;37.404;2024-02-28T12:45:46;17.50;;;6.88;;
24619;SDS011;12763;55.802;37.404;2024-02-28T12:48:12;22.98;;;6.97;;
24619;SDS011;12763;55.802;37.404;2024-02-28T12:50:38;27.40;;;8.52;;
24619;SDS011;12763;55.802;37.404;2024-02-28T12:53:04;15.32;;;7.15;;
24619;SDS011;12763;55.802;37.404;2024-02-28T12:55:31;17.80;;;7.07;;
24619;SDS011;12763;55.802;37.404;2024-02-28T12:57:57;17.08;;;6.53;;
24619;SDS011;12763;55.802;37.404;2024-02-28T13:00:25;15.82;;;6.95;;
24619;SDS011;12763;55.802;37.404;2024-02-28T13:02:51;14.52;;;7.10;;
24619;SDS011;12763;55.802;37.404;2024-02-28T13:05:17;24.20;;;7.85;;
24619;SDS011;12763;55.802;37.404;2024-02-28T13:07:43;18.20;;;7.72;;
24619;SDS011;12763;55.802;37.404;2024-02-28T13:12:54;13.85;;;6.43;;
24619;SDS011;12763;55.802;37.404;2024-02-28T13:15:20;21.00;;;6.70;;
24619;SDS011;12763;55.802;37.404;2024-02-28T13:17:46;14.77;;;7.78;;
24619;SDS011;12763;55.802;37.404;2024-02-28T13:20:14;12.52;;;6.78;;
24619;SDS011;12763;55.802;37.404;2024-02-28T13:22:41;19.00;;;7.85;;
24619;SDS011;12763;55.802;37.404;2024-02-28T13:25:07;15.25;;;6.55;;
24619;SDS011;12763;55.802;37.404;2024-02-28T13:27:34;17.38;;;7.18;;
24619;SDS011;12763;55.802;37.404;2024-02-28T13:30:00;14.05;;;5.97;;
24619;SDS011;12763;55.802;37.404;2024-02-28T13:32:26;20.13;;;6.85;;
24619;SDS011;12763;55.802;37.404;2024-02-28T13:34:52;16.52;;;6.53;;
24619;SDS011;12763;55.802;37.404;2024-02-28T13:37:18;15.45;;;6.93;;
24619;SDS011;12763;55.802;37.404;2024-02-28T13:39:43;15.18;;;6.68;;
24619;SDS011;12763;55.802;37.404;2024-02-28T13:42:09;14.73;;;6.72;;
24619;SDS011;12763;55.802;37.404;2024-02-28T13:44:36;15.48;;;6.53;;
24619;SDS011;12763;55.802;37.404;2024-02-28T13:47:02;19.30;;;7.10;;
24619;SDS011;12763;55.802;37.404;2024-02-28T13:49:28;16.70;;;6.47;;
24619;SDS011;12763;55.802;37.404;2024-02-28T13:51:54;17.65;;;7.47;;
24619;SDS011;12763;55.802;37.404;2024-02-28T13:54:20;13.65;;;7.28;;
24619;SDS011;12763;55.802;37.404;2024-02-28T13:56:46;24.92;;;7.50;;
24619;SDS011;12763;55.802;37.404;2024-02-28T13:59:12;15.93;;;6.90;;
24619;SDS011;12763;55.802;37.404;2024-02-28T14:01:57;17.80;;;6.25;;
24619;SDS011;12763;55.802;37.404;2024-02-28T14:04:25;21.00;;;7.40;;
24619;SDS011;12763;55.802;37.404;2024-02-28T14:06:51;20.85;;;7.25;;
24619;SDS011;12763;55.802;37.404;2024-02-28T14:09:17;16.42;;;6.38;;
24619;SDS011;12763;55.802;37.404;2024-02-28T14:11:43;21.35;;;6.95;;
24619;SDS011;12763;55.802;37.404;2024-02-28T14:14:10;16.23;;;7.53;;
24619;SDS011;12763;55.802;37.404;2024-02-28T14:16:37;17.77;;;7.25;;
24619;SDS011;12763;55.802;37.404;2024-02-28T14:19:03;14.20;;;6.80;;
24619;SDS011;12763;55.802;37.404;2024-02-28T14:21:29;12.27;;;6.85;;
24619;SDS011;12763;55.802;37.404;2024-02-28T14:23:55;18.95;;;6.80;;